Elk City, OK (73644)

8:10 PM CDT on September 15, 2014 (GMT -0500)
Clinton-Sherman | Change Station
CLOSE
Current Station
Airport
Location: Clinton-Sherman,
Elevation: 1923 ft
Nearby Weather Stations
4.0 Earthquake: Guthrie, Oklahoma (5 hours ago)  

Elev 1923 ft 35.34 °N, 99.20 °W | Updated 17 minutes ago

Overcast
Overcast
81 °F
Feels Like 82 °F
N
8
Wind Variable Wind from SSE

Today
High -- | Low -- °F
--% Chance of Precip.
Yesterday
High -- | Low -- °F
Precip. -- in
7:20 AM 7:44 PM
Waning Gibbous, 50% visible
Pressure 30.08 in
Visibility 10.0 miles
Clouds Few 5500 ft
Mostly Cloudy 8000 ft
Overcast 10000 ft
Heat Index 82 °F
Dew Point 62 °F
Humidity 52%
Rainfall 0.00 in
Snow Depth Not available.
UV 0 out of 12
Pollen 7.80 out of 12
Air Quality Not available.
Flu Activity Not available.
METAR KCSM 160053Z 16007KT 10SM FEW055 BKN080 OVC100 27/17 A3013 RMK AO2 SLP184 T02720167

More Conditions Fewer Conditions

Pressure 30.08 in
Visibility 10.0 miles
Clouds Few 5500 ft
Mostly Cloudy 8000 ft
Overcast 10000 ft
Heat Index 82 °F
Dew Point 62 °F
Humidity 52%
Rainfall 0.00 in
Snow Depth Not available.
UV 0 out of 12
Pollen 7.80 out of 12
Air Quality Not available.
Flu Activity Not available.
METAR KCSM 160053Z 16007KT 10SM FEW055 BKN080 OVC100 27/17 A3013 RMK AO2 SLP184 T02720167

More Conditions Fewer Conditions

10-Day Weather Forecast

Almanac

Astronomy

Sep. 15, 2014 Rise Set
Actual Time 7:20 AM CDT 7:44 PM CDT
Civil Twilight 6:54 AM CDT 8:10 PM CDT
Nautical Twilight 6:24 AM CDT 8:39 PM CDT
Astronomical Twilight 5:54 AM CDT 9:10 PM CDT
Moon No Moon Rise 2:09 PM CDT (9/15)
Length of Visible Light 13h 15m
Length of Day
12h 24m
Tomorrow will be 2m 11s shorter.
Waning Gibbous, 50% of the Moon is Illuminated
Today
Waning Gibbous
Sep 15
Last Quarter
Sep 24
New
Oct 1
First Quarter
Oct 8
Full

Today's Extremes

State Highs State Lows

Community

WunderPhotos

Upload Photos

1,753,643 photos uploaded!

WunderBlogs® & News

Nearby

Snow Depth

Station Depth Elevation
No new snow has been reported.

Earthquake Activity

City Distance Mag. Time & Date
Guthrie, Oklahoma 115 miles 2.7 4:00 PM CDT
2014-09-15
Guthrie, Oklahoma 115 miles 3.2 3:14 PM CDT
2014-09-15
Guthrie, Oklahoma 115 miles 4.0 3:08 PM CDT
2014-09-15
Enid, Oklahoma 116 miles 3.1 8:27 AM CDT
2014-09-15
Minimum magnitude displayed is 2.5.

Coastal Water Temperatures

Place Temperature
No Stations Reporting

Nearby Weather Stations